Time;durP1;ratioP1;P1;durP2;ratioP2;P2;SDS_P1;SDS_P2;PMS_P1;PMS_P2;Temp;Humidity;BMP_temperature;BMP_pressure;BME280_temperature;BME280_humidity;BME280_pressure;Samples;Min_cycle;Max_cycle;Signal;HPM_P1;HPM_P2
2021/03/11 00:00:44;;;;;;;9.98;6.18;;;;;;;15.52;41.44;100262.91;4974704;28;123703;-80
2021/03/11 00:03:15;;;;;;;7.28;6.15;;;;;;;15.49;41.10;100266.53;4992519;28;107582;-79
2021/03/11 00:05:42;;;;;;;7.88;6.78;;;;;;;15.52;41.21;100268.19;4991310;28;108974;-79
2021/03/11 00:08:08;;;;;;;8.25;6.50;;;;;;;15.48;41.61;100256.03;4991621;28;124437;-77
2021/03/11 00:10:36;;;;;;;8.70;6.30;;;;;;;15.48;41.27;100254.25;4992297;28;123871;-80
2021/03/11 00:13:03;;;;;;;6.55;5.68;;;;;;;15.47;41.33;100233.19;4993302;28;107336;-80
2021/03/11 00:15:31;;;;;;;8.57;6.97;;;;;;;15.45;41.30;100225.34;4994359;28;107725;-80
2021/03/11 00:17:57;;;;;;;7.95;6.30;;;;;;;15.47;41.52;100234.03;4992134;28;123941;-80
2021/03/11 00:20:25;;;;;;;9.77;6.57;;;;;;;15.46;41.66;100231.47;4996120;28;123505;-80
2021/03/11 00:22:52;;;;;;;8.20;6.35;;;;;;;15.44;41.53;100232.41;4995945;28;107847;-76
2021/03/11 00:25:20;;;;;;;7.10;6.28;;;;;;;15.44;41.63;100229.78;4993391;28;107365;-76
2021/03/11 00:27:46;;;;;;;8.20;6.00;;;;;;;15.44;41.57;100239.50;4993577;28;124957;-76
2021/03/11 00:30:14;;;;;;;8.02;5.93;;;;;;;15.44;41.81;100226.28;4993014;28;124408;-74
2021/03/11 00:32:41;;;;;;;8.05;6.32;;;;;;;15.43;41.80;100233.34;4993355;28;109400;-75
2021/03/11 00:35:09;;;;;;;6.80;5.22;;;;;;;15.42;41.81;100236.94;4992870;28;109111;-75
2021/03/11 00:37:36;;;;;;;8.88;5.80;;;;;;;15.43;41.65;100219.28;4991791;28;124399;-74
2021/03/11 00:40:07;;;;;;;7.40;5.80;;;;;;;15.39;42.03;100223.84;4973583;28;123328;-75
2021/03/11 00:42:33;;;;;;;7.30;6.00;;;;;;;15.40;41.82;100207.09;4991946;28;109552;-75
2021/03/11 00:44:59;;;;;;;7.53;6.05;;;;;;;15.40;42.08;100215.03;4992668;28;109743;-77
2021/03/11 00:47:26;;;;;;;6.97;5.63;;;;;;;15.40;42.20;100206.22;4973737;28;123700;-76
2021/03/11 00:49:53;;;;;;;7.22;5.57;;;;;;;15.41;42.00;100208.78;4992400;28;124226;-76
2021/03/11 00:52:19;;;;;;;7.95;6.20;;;;;;;15.39;42.03;100189.50;4992963;28;109050;-76
2021/03/11 00:54:45;;;;;;;9.38;6.18;;;;;;;15.39;42.40;100199.22;4974861;28;107899;-74
2021/03/11 00:57:11;;;;;;;8.38;6.03;;;;;;;15.40;42.66;100185.94;4974468;28;122972;-78
2021/03/11 00:59:38;;;;;;;10.05;6.60;;;;;;;15.36;42.38;100179.09;4974672;28;122882;-77
2021/03/11 01:02:04;;;;;;;7.05;5.80;;;;;;;15.37;42.35;100196.66;5084550;22;109301;-78
2021/03/11 01:04:33;;;;;;;9.05;6.05;;;;;;;15.36;42.41;100184.38;4983715;22;106974;-80
2021/03/11 01:07:03;;;;;;;7.72;6.30;;;;;;;15.35;42.66;100172.09;4986585;28;124880;-79
2021/03/11 01:09:31;;;;;;;6.95;5.38;;;;;;;15.34;42.65;100175.69;4983035;28;123665;-79
2021/03/11 01:11:59;;;;;;;9.20;6.72;;;;;;;15.36;42.99;100165.00;4986730;28;108683;-79
2021/03/11 01:14:25;;;;;;;6.28;5.68;;;;;;;15.35;42.69;100152.72;4981100;28;108319;-80
2021/03/11 01:16:52;;;;;;;7.63;5.97;;;;;;;15.38;42.83;100163.13;4974680;28;124136;-80
2021/03/11 01:19:18;;;;;;;9.38;6.20;;;;;;;15.33;42.74;100146.69;4974708;28;124308;-81
2021/03/11 01:21:45;;;;;;;6.78;5.97;;;;;;;15.33;43.03;100150.19;4954282;28;108963;-75
2021/03/11 01:24:11;;;;;;;8.43;5.68;;;;;;;15.34;42.89;100153.69;4955479;28;109073;-74
2021/03/11 01:26:37;;;;;;;7.93;5.75;;;;;;;15.33;42.77;100152.81;4955230;28;124663;-75
2021/03/11 01:29:03;;;;;;;6.38;5.32;;;;;;;15.33;42.86;100136.09;4954732;28;123337;-74
2021/03/11 01:31:30;;;;;;;9.80;6.28;;;;;;;15.32;43.06;100132.63;4955470;28;110300;-75
2021/03/11 01:33:56;;;;;;;7.30;5.82;;;;;;;15.36;43.33;100130.66;4955760;28;110207;-74
2021/03/11 01:36:22;;;;;;;8.55;5.95;;;;;;;15.34;43.05;100127.22;4954314;28;125462;-74
2021/03/11 01:38:48;;;;;;;6.97;5.57;;;;;;;15.31;43.10;100132.69;4955606;28;123748;-73
2021/03/11 01:41:14;;;;;;;6.90;5.70;;;;;;;15.33;43.21;100109.66;4956510;28;109016;-74
2021/03/11 01:43:40;;;;;;;7.85;5.93;;;;;;;15.30;43.14;100116.00;4956263;28;108940;-78
2021/03/11 01:46:07;;;;;;;7.30;6.07;;;;;;;15.31;43.40;100111.56;4959289;28;124141;-85
2021/03/11 01:48:34;;;;;;;6.72;5.97;;;;;;;15.35;43.58;100098.06;4969840;28;123825;-79
2021/03/11 01:51:01;;;;;;;11.75;6.05;;;;;;;15.33;43.71;100097.31;4975907;28;109153;-81
2021/03/11 01:53:28;;;;;;;7.10;5.75;;;;;;;15.31;43.99;100096.53;4975555;28;109157;-81
2021/03/11 01:55:54;;;;;;;7.47;5.60;;;;;;;15.30;43.52;100088.69;4975078;28;124263;-83
2021/03/11 01:58:20;;;;;;;7.15;5.70;;;;;;;15.32;43.61;100058.59;4976166;28;124639;-82
2021/03/11 02:00:46;;;;;;;8.55;6.15;;;;;;;15.28;43.90;100054.38;4980098;28;109526;-81
2021/03/11 02:03:12;;;;;;;6.63;5.93;;;;;;;15.30;43.81;100039.31;4990348;28;109710;-81
2021/03/11 02:05:38;;;;;;;8.30;6.47;;;;;;;15.30;43.45;100027.91;4976568;28;124349;-80
2021/03/11 02:08:06;;;;;;;7.82;6.30;;;;;;;15.30;43.82;100041.13;5049856;22;123738;-83
2021/03/11 02:10:33;;;;;;;8.40;6.60;;;;;;;15.30;43.89;100052.53;5011795;27;108788;-84
2021/03/11 02:13:26;;;;;;;7.75;6.22;;;;;;;15.29;43.68;100036.72;5010592;27;107712;-80
2021/03/11 02:16:00;;;;;;;8.68;6.47;;;;;;;15.31;43.88;100026.94;5007854;27;125005;-80
2021/03/11 02:18:47;;;;;;;9.45;6.93;;;;;;;15.29;44.15;100021.75;5012224;27;124710;-81
2021/03/11 02:21:25;;;;;;;12.75;7.40;;;;;;;15.27;44.08;100023.59;5010668;27;109710;-79
2021/03/11 02:24:06;;;;;;;6.28;5.63;;;;;;;15.26;44.08;100013.97;5006547;22;109332;-80
2021/03/11 02:26:54;;;;;;;9.27;5.45;;;;;;;15.28;44.23;99993.59;4995684;28;124759;-75
2021/03/11 02:29:25;;;;;;;8.90;6.05;;;;;;;15.27;44.46;99985.75;5022230;27;123990;-76
2021/03/11 02:31:57;;;;;;;6.20;5.57;;;;;;;15.27;44.28;99988.41;5022433;27;108262;-77
2021/03/11 02:34:28;;;;;;;8.20;5.95;;;;;;;15.28;44.51;99974.22;5020726;27;108636;-77
2021/03/11 02:39:31;;;;;;;7.00;5.50;;;;;;;15.28;44.30;99966.31;5042342;27;97174;-75
2021/03/11 02:41:59;;;;;;;8.10;6.13;;;;;;;15.28;44.63;99968.94;5024258;28;110086;-74
2021/03/11 02:44:25;;;;;;;7.72;5.35;;;;;;;15.26;44.48;99960.25;5127572;22;108916;-77
2021/03/11 02:49:28;;;;;;;6.85;4.85;;;;;;;15.27;44.49;99948.75;5078837;22;98508;-74
2021/03/11 02:51:55;;;;;;;5.35;4.65;;;;;;;15.25;44.64;99951.47;5025197;28;108851;-75
2021/03/11 02:54:22;;;;;;;7.35;5.32;;;;;;;15.27;44.69;99948.75;5010986;28;108023;-82
2021/03/11 02:56:50;;;;;;;7.10;5.05;;;;;;;15.24;44.49;99933.91;5033179;28;123956;-81
2021/03/11 02:59:17;;;;;;;8.77;5.80;;;;;;;15.24;44.72;99930.44;5019365;28;125477;-74
2021/03/11 03:01:45;;;;;;;6.43;5.07;;;;;;;15.24;44.82;99901.34;5017085;28;108697;-73
2021/03/11 03:04:12;;;;;;;7.35;5.07;;;;;;;15.26;44.95;99913.53;5003091;28;109220;-74
2021/03/11 03:06:40;;;;;;;7.45;5.13;;;;;;;15.25;44.69;99906.53;5001635;28;124832;-77
2021/03/11 03:09:09;;;;;;;5.72;4.90;;;;;;;15.26;45.01;99904.75;5010828;28;123385;-79
2021/03/11 03:11:37;;;;;;;8.48;5.15;;;;;;;15.27;45.28;99906.44;4990826;28;110636;-78
2021/03/11 03:14:07;;;;;;;6.93;5.40;;;;;;;15.29;45.13;99915.13;4996079;28;109976;-79
2021/03/11 03:16:36;;;;;;;8.10;5.18;;;;;;;15.25;45.15;99901.25;5013230;28;123202;-79
2021/03/11 03:19:03;;;;;;;6.57;5.07;;;;;;;15.27;45.33;99886.16;4995151;28;124178;-80
2021/03/11 03:21:30;;;;;;;6.05;4.78;;;;;;;15.28;45.46;99885.22;5013849;28;109266;-74
2021/03/11 03:23:57;;;;;;;6.03;4.60;;;;;;;15.28;45.16;99890.50;5014027;28;109137;-82
2021/03/11 03:26:24;;;;;;;5.82;4.72;;;;;;;15.26;45.13;99880.97;4995599;28;123277;-81
2021/03/11 03:28:50;;;;;;;6.13;4.90;;;;;;;15.28;45.47;99882.56;4996421;28;123982;-79
2021/03/11 03:31:16;;;;;;;6.68;4.65;;;;;;;15.26;45.47;99850.09;4995917;28;108866;-81
2021/03/11 03:33:42;;;;;;;6.75;4.85;;;;;;;15.28;45.44;99840.28;5013994;28;109602;-80
2021/03/11 03:36:08;;;;;;;5.93;4.78;;;;;;;15.28;45.81;99813.00;5012565;28;123144;-79
2021/03/11 03:38:34;;;;;;;6.28;4.50;;;;;;;15.23;45.71;99813.28;5014206;28;124861;-79
2021/03/11 03:41:01;;;;;;;7.07;4.45;;;;;;;15.26;45.67;99810.44;5013942;28;109536;-80
2021/03/11 03:43:33;;;;;;;7.90;4.80;;;;;;;15.27;45.88;99808.66;4994891;28;108109;-80
2021/03/11 03:46:09;;;;;;;5.78;4.63;;;;;;;15.23;45.55;99792.13;5012754;28;124419;-80
2021/03/11 03:48:51;;;;;;;6.22;4.85;;;;;;;15.23;45.83;99788.63;4983634;28;122246;-82
2021/03/11 03:51:28;;;;;;;5.00;4.18;;;;;;;15.22;45.92;99795.72;4998667;28;109270;-82
2021/03/11 03:54:10;;;;;;;6.00;4.07;;;;;;;15.22;45.85;99798.34;4995270;28;108782;-74
2021/03/11 03:56:39;;;;;;;4.15;3.67;;;;;;;15.22;45.92;99805.44;5006833;28;124384;-75
2021/03/11 03:59:20;;;;;;;4.57;3.83;;;;;;;15.22;45.76;99782.50;4978691;28;122760;-81
2021/03/11 04:01:46;;;;;;;6.22;4.32;;;;;;;15.21;46.00;99782.59;5011618;28;110459;-85
2021/03/11 04:04:13;;;;;;;5.18;3.40;;;;;;;15.19;45.81;99777.41;5009662;28;110012;-83
2021/03/11 04:06:41;;;;;;;4.18;3.50;;;;;;;15.21;46.12;99790.53;5007217;28;123959;-83
2021/03/11 04:09:10;;;;;;;4.00;3.47;;;;;;;15.21;46.05;99788.72;4974717;28;122729;-80
2021/03/11 04:11:38;;;;;;;4.50;4.10;;;;;;;15.22;45.95;99779.00;4993463;28;109746;-81
2021/03/11 04:14:04;;;;;;;9.00;3.40;;;;;;;15.23;46.42;99764.84;4993127;28;109567;-78
2021/03/11 04:16:31;;;;;;;4.55;3.67;;;;;;;15.26;46.30;99772.59;4993021;28;124315;-77
2021/03/11 04:18:59;;;;;;;7.28;3.55;;;;;;;15.29;46.25;99786.50;4993442;28;124227;-77
2021/03/11 04:21:26;;;;;;;4.80;3.80;;;;;;;15.28;46.27;99768.91;4993482;28;109207;-76
2021/03/11 04:23:53;;;;;;;3.90;3.33;;;;;;;15.29;46.15;99753.88;4974746;28;107906;-76
2021/03/11 04:26:20;;;;;;;4.43;3.40;;;;;;;15.33;46.48;99761.56;4990048;28;124414;-77
2021/03/11 04:28:47;;;;;;;5.28;3.47;;;;;;;15.35;46.83;99741.16;4973671;28;124872;-78
2021/03/11 04:31:13;;;;;;;4.50;3.60;;;;;;;15.34;46.52;99755.31;4957484;28;108370;-74
2021/03/11 04:33:40;;;;;;;4.95;3.85;;;;;;;15.35;46.32;99769.41;4990084;28;109098;-75
2021/03/11 04:36:07;;;;;;;3.92;3.40;;;;;;;15.36;46.52;99761.38;4971089;28;123002;-75
2021/03/11 04:38:34;;;;;;;3.97;3.10;;;;;;;15.33;46.57;99756.28;4969425;28;123884;-74
2021/03/11 04:41:00;;;;;;;4.05;3.35;;;;;;;15.32;46.62;99770.44;4954063;28;108420;-75
2021/03/11 04:43:26;;;;;;;3.55;3.25;;;;;;;15.33;46.55;99764.22;4973582;28;108867;-73
2021/03/11 04:45:53;;;;;;;58.80;17.85;;;;;;;15.32;46.48;99767.78;4972012;28;123779;-77
2021/03/11 04:48:21;;;;;;;4.72;3.33;;;;;;;15.35;46.64;99745.59;4983060;28;123431;-79
2021/03/11 04:50:48;;;;;;;3.45;3.15;;;;;;;15.35;46.52;99742.97;4977497;28;109058;-75
2021/03/11 04:53:15;;;;;;;3.90;3.10;;;;;;;15.37;46.46;99730.50;4996327;28;109890;-75
2021/03/11 04:55:45;;;;;;;5.28;3.30;;;;;;;15.38;46.62;99721.63;4995679;28;124014;-78
2021/03/11 04:58:12;;;;;;;3.88;2.83;;;;;;;15.35;46.44;99721.81;4995562;28;124553;-77
2021/03/11 05:00:39;;;;;;;3.95;3.15;;;;;;;15.38;46.92;99719.81;4995782;28;109904;-78
2021/03/11 05:03:10;;;;;;;4.03;3.05;;;;;;;15.39;46.96;99724.16;4995854;28;109272;-78
2021/03/11 05:05:38;;;;;;;4.68;3.22;;;;;;;15.37;46.83;99726.06;4995872;28;123720;-78
2021/03/11 05:08:05;;;;;;;3.65;2.70;;;;;;;15.37;46.88;99720.75;4997063;28;123915;-78
2021/03/11 05:10:32;;;;;;;3.47;2.97;;;;;;;15.37;46.96;99720.75;4996363;28;109439;-77
2021/03/11 05:12:59;;;;;;;4.10;2.60;;;;;;;15.37;46.87;99720.75;4961393;28;108444;-78
2021/03/11 05:15:25;;;;;;;4.20;2.75;;;;;;;15.40;46.81;99719.72;4995407;28;124171;-77
2021/03/11 05:17:51;;;;;;;5.07;2.80;;;;;;;15.39;47.13;99703.00;4977414;28;123969;-76
2021/03/11 05:20:19;;;;;;;3.30;2.40;;;;;;;15.41;46.89;99698.50;4994745;28;109371;-76
2021/03/11 05:22:45;;;;;;;3.10;2.80;;;;;;;15.46;47.35;99686.78;4995617;28;109231;-75
2021/03/11 05:25:12;;;;;;;3.83;2.90;;;;;;;15.43;47.14;99686.03;4994768;28;124292;-75
2021/03/11 05:27:39;;;;;;;3.58;2.97;;;;;;;15.42;47.48;99694.06;4977281;28;124663;-76
2021/03/11 05:30:07;;;;;;;3.60;2.85;;;;;;;15.40;47.08;99678.31;4977519;28;108610;-75
2021/03/11 05:32:34;;;;;;;4.88;3.38;;;;;;;15.53;47.53;99674.88;4977190;28;107894;-76
2021/03/11 05:35:00;;;;;;;3.10;2.63;;;;;;;15.45;47.47;99688.56;4994558;28;124718;-75
2021/03/11 05:37:26;;;;;;;2.80;2.50;;;;;;;15.43;47.78;99686.03;4994184;28;124081;-76
2021/03/11 05:39:52;;;;;;;5.45;2.53;;;;;;;15.43;47.58;99707.19;4994572;28;110462;-75
2021/03/11 05:42:20;;;;;;;3.20;2.67;;;;;;;15.45;47.62;99704.44;4995253;28;109959;-75
2021/03/11 05:44:52;;;;;;;3.85;2.70;;;;;;;15.46;47.82;99706.13;5001446;28;124113;-75
2021/03/11 05:47:19;;;;;;;4.67;3.20;;;;;;;15.49;47.51;99695.34;4993337;28;124563;-75
2021/03/11 05:49:46;;;;;;;3.42;2.53;;;;;;;15.47;47.32;99709.63;4995231;28;109363;-75
2021/03/11 05:52:13;;;;;;;3.65;2.70;;;;;;;15.49;47.57;99697.16;4994869;28;109544;-75
2021/03/11 05:54:40;;;;;;;3.45;2.92;;;;;;;15.49;47.57;99708.59;4994354;28;124186;-83
2021/03/11 05:57:07;;;;;;;4.78;2.90;;;;;;;15.49;47.74;99698.00;4994727;28;123799;-82
2021/03/11 05:59:34;;;;;;;8.77;3.95;;;;;;;15.50;47.36;99686.47;4993982;28;109618;-81
2021/03/11 06:02:05;;;;;;;4.97;2.70;;;;;;;15.48;47.69;99687.53;4994886;28;109303;-83
2021/03/11 06:04:34;;;;;;;2.92;2.55;;;;;;;15.49;47.81;99708.59;4994388;28;124313;-79
2021/03/11 06:07:01;;;;;;;3.92;2.67;;;;;;;15.49;47.79;99710.38;4993943;28;124481;-81
2021/03/11 06:09:28;;;;;;;4.38;3.00;;;;;;;15.49;47.88;99710.38;4994340;28;109562;-83
2021/03/11 06:11:55;;;;;;;2.60;2.40;;;;;;;15.53;48.17;99709.25;4994133;28;108956;-82
2021/03/11 06:14:25;;;;;;;3.35;2.35;;;;;;;15.49;48.05;99716.50;4995242;28;123932;-85
2021/03/11 06:17:00;;;;;;;4.65;2.72;;;;;;;15.50;48.13;99720.84;4976551;28;124455;-80
2021/03/11 06:19:28;;;;;;;3.10;2.30;;;;;;;15.50;47.92;99715.56;4996210;28;109080;-84
2021/03/11 06:21:54;;;;;;;2.63;2.42;;;;;;;15.55;48.15;99713.50;4985440;28;107872;-82
2021/03/11 06:24:23;;;;;;;2.85;2.35;;;;;;;15.55;47.70;99695.00;5000615;28;124414;-83
2021/03/11 06:26:49;;;;;;;3.15;1.88;;;;;;;15.54;47.93;99689.81;4992345;28;124304;-84
2021/03/11 06:29:17;;;;;;;3.60;2.00;;;;;;;15.54;47.94;99690.66;4994807;28;109750;-80
2021/03/11 06:31:43;;;;;;;7.50;2.40;;;;;;;15.56;47.66;99690.56;5013410;28;109652;-76
2021/03/11 06:34:20;;;;;;;3.22;2.20;;;;;;;15.57;48.00;99689.59;5013160;28;124037;-83
2021/03/11 06:36:47;;;;;;;3.10;2.00;;;;;;;15.57;47.51;99686.97;4995865;28;124634;-79
2021/03/11 06:39:27;;;;;;;3.90;2.33;;;;;;;15.57;47.71;99677.22;5013955;28;109261;-84
2021/03/11 06:41:53;;;;;;;4.00;2.05;;;;;;;15.59;47.61;99690.34;5013436;28;109663;-81
2021/03/11 06:44:42;;;;;;;9.95;2.00;;;;;;;15.60;47.88;99690.28;5013441;28;124505;-83
2021/03/11 06:47:10;;;;;;;4.15;2.20;;;;;;;15.66;47.70;99683.78;5012322;28;123928;-81
2021/03/11 06:50:09;;;;;;;4.95;2.05;;;;;;;15.66;47.60;99691.72;4994149;28;109041;-79
2021/03/11 06:52:35;;;;;;;2.45;2.05;;;;;;;15.70;47.50;99691.41;4933312;28;108784;-82
2021/03/11 06:55:08;;;;;;;2.47;2.00;;;;;;;15.73;47.47;99677.13;4991943;28;124656;-84
2021/03/11 06:57:39;;;;;;;4.55;2.00;;;;;;;15.78;47.48;99680.34;4991712;28;123997;-80
2021/03/11 07:00:19;;;;;;;4.50;2.67;;;;;;;15.80;47.45;99674.97;4993739;28;109428;-74
2021/03/11 07:02:56;;;;;;;3.40;2.30;;;;;;;15.89;47.24;99659.34;4992401;28;108354;-75
2021/03/11 07:05:24;;;;;;;3.92;2.13;;;;;;;15.88;47.20;99668.22;4974640;28;124580;-74
2021/03/11 07:08:13;;;;;;;4.38;2.17;;;;;;;15.87;47.41;99673.63;4992201;28;123774;-75
2021/03/11 07:10:41;;;;;;;4.72;2.45;;;;;;;15.87;47.38;99669.19;4999176;28;109471;-75
2021/03/11 07:13:08;;;;;;;3.55;2.22;;;;;;;15.86;47.26;99664.00;4995369;28;109353;-76
2021/03/11 07:15:35;;;;;;;4.90;1.70;;;;;;;15.93;47.11;99686.44;5000482;28;124377;-75
2021/03/11 07:18:07;;;;;;;7.25;2.30;;;;;;;15.96;47.16;99676.50;4993230;28;122983;-75
2021/03/11 07:20:34;;;;;;;3.95;2.78;;;;;;;15.97;47.13;99662.34;5002945;28;110712;-75
2021/03/11 07:23:12;;;;;;;5.93;2.75;;;;;;;16.01;46.81;99669.13;5001992;28;109789;-74
2021/03/11 07:25:45;;;;;;;6.75;2.65;;;;;;;16.01;46.83;99663.84;4998524;28;123892;-74
2021/03/11 07:28:29;;;;;;;3.72;2.60;;;;;;;16.01;46.79;99678.88;4982760;28;123190;-74
2021/03/11 07:31:00;;;;;;;7.85;2.90;;;;;;;16.12;46.39;99665.78;4984717;28;107868;-74
2021/03/11 07:33:28;;;;;;;6.82;2.78;;;;;;;16.18;46.13;99675.09;5000849;28;108843;-73
2021/03/11 07:35:57;;;;;;;13.00;2.88;;;;;;;16.26;45.71;99678.13;4983468;28;124372;-81
2021/03/11 07:38:25;;;;;;;14.38;3.35;;;;;;;16.31;45.50;99691.91;4978931;28;122784;-81
2021/03/11 07:40:57;;;;;;;15.80;3.92;;;;;;;16.36;45.24;99676.56;5004593;28;109791;-81
2021/03/11 07:43:27;;;;;;;13.88;4.00;;;;;;;16.36;44.83;99668.63;5001240;28;109156;-79
2021/03/11 07:46:02;;;;;;;31.35;4.85;;;;;;;16.43;44.57;99677.88;5008596;28;124222;-75
2021/03/11 07:48:29;;;;;;;18.17;4.22;;;;;;;16.51;44.37;99695.88;5000655;28;124521;-81
2021/03/11 07:50:56;;;;;;;25.20;5.57;;;;;;;16.44;44.35;99684.84;4992803;28;109076;-80
2021/03/11 07:53:23;;;;;;;25.13;5.15;;;;;;;16.44;44.61;99718.44;4992868;28;109513;-80
2021/03/11 07:55:50;;;;;;;30.27;5.55;;;;;;;16.38;44.36;99693.19;4992400;28;124218;-80
2021/03/11 07:58:23;;;;;;;22.42;5.10;;;;;;;16.44;44.52;99697.25;4992837;28;124474;-82
2021/03/11 08:00:50;;;;;;;29.38;5.50;;;;;;;16.44;44.29;99684.00;4996026;28;109184;-78
2021/03/11 08:03:23;;;;;;;32.85;6.78;;;;;;;16.55;44.12;99684.97;4996899;28;109232;-73
2021/03/11 08:05:50;;;;;;;33.90;6.60;;;;;;;16.55;44.13;99692.94;4995928;28;123951;-74
2021/03/11 08:08:20;;;;;;;29.27;6.13;;;;;;;16.52;44.34;99689.63;4998920;28;123873;-74
2021/03/11 08:10:51;;;;;;;26.75;7.32;;;;;;;16.62;43.97;99711.03;4993613;28;110709;-74
2021/03/11 08:13:23;;;;;;;33.72;6.88;;;;;;;16.77;43.70;99707.41;4999070;28;110224;-74
2021/03/11 08:15:50;;;;;;;30.40;6.97;;;;;;;16.64;44.07;99704.69;4999373;28;124678;-74
2021/03/11 08:18:43;;;;;;;29.20;5.70;;;;;;;16.70;44.41;99724.66;4987266;28;124222;-75
2021/03/11 08:21:24;;;;;;;31.92;6.78;;;;;;;16.65;44.86;99713.47;5000780;28;109233;-75
2021/03/11 08:23:51;;;;;;;31.70;6.32;;;;;;;16.67;44.79;99698.34;5010930;28;109232;-73
2021/03/11 08:26:43;;;;;;;40.85;6.45;;;;;;;16.70;48.63;99699.03;4992646;28;122932;-74
2021/03/11 08:29:15;;;;;;;37.63;9.00;;;;;;;16.88;48.62;99681.03;5011300;28;123838;-74
2021/03/11 08:31:42;;;;;;;41.50;7.15;;;;;;;16.92;47.15;99661.31;4993278;28;108491;-75
2021/03/11 08:34:08;;;;;;;30.00;7.05;;;;;;;16.91;46.90;99666.72;5012408;28;109160;-75
2021/03/11 08:36:36;;;;;;;33.35;6.55;;;;;;;16.90;45.87;99681.78;5012616;28;123968;-74
2021/03/11 08:39:05;;;;;;;28.23;5.93;;;;;;;17.01;45.10;99673.94;5013385;28;124152;-74
2021/03/11 08:41:33;;;;;;;34.65;6.82;;;;;;;16.96;44.56;99684.00;5014736;28;109097;-77
2021/03/11 08:44:01;;;;;;;24.23;6.88;;;;;;;16.89;44.22;99688.03;4997322;28;107109;-76
2021/03/11 08:46:49;;;;;;;31.27;6.88;;;;;;;17.02;43.85;99674.78;4996491;28;122668;-79
2021/03/11 08:49:47;;;;;;;25.67;5.93;;;;;;;16.94;43.52;99667.34;4978092;28;123755;-81
2021/03/11 08:52:39;;;;;;;30.83;6.68;;;;;;;17.06;43.39;99682.41;4960401;28;109310;-76
2021/03/11 08:55:31;;;;;;;38.67;6.85;;;;;;;17.13;42.74;99637.78;4992087;28;108916;-81
2021/03/11 08:57:58;;;;;;;34.15;6.82;;;;;;;17.16;42.64;99686.13;4989468;28;123878;-74
2021/03/11 09:00:59;;;;;;;26.35;6.75;;;;;;;17.24;42.95;99676.81;4988705;28;124464;-74
2021/03/11 09:03:37;;;;;;;26.88;6.35;;;;;;;17.11;43.32;99664.41;4991561;28;110692;-76
2021/03/11 09:06:06;;;;;;;22.90;5.78;;;;;;;17.26;43.75;99682.84;4994283;28;109888;-78
2021/03/11 09:08:34;;;;;;;23.38;6.25;;;;;;;17.35;43.30;99690.16;4992761;28;123949;-75
2021/03/11 09:11:08;;;;;;;27.60;7.30;;;;;;;17.39;43.41;99692.47;4989116;28;123985;-75
2021/03/11 09:13:34;;;;;;;27.88;7.22;;;;;;;17.35;43.66;99706.06;4990166;28;109129;-76
2021/03/11 09:16:00;;;;;;;30.55;6.97;;;;;;;17.48;42.78;99671.56;4985690;28;109735;-73
2021/03/11 09:18:28;;;;;;;25.42;6.05;;;;;;;17.37;42.13;99699.69;4977612;28;124228;-73
2021/03/11 09:20:54;;;;;;;27.80;6.55;;;;;;;17.41;42.21;99726.84;4971619;28;122736;-73
2021/03/11 09:23:32;;;;;;;31.00;7.75;;;;;;;17.42;41.99;99673.69;4989642;28;110115;-73
2021/03/11 09:25:58;;;;;;;24.80;6.18;;;;;;;17.34;41.98;99718.47;4980036;28;109030;-74
2021/03/11 09:28:25;;;;;;;26.92;6.68;;;;;;;17.49;41.64;99697.97;4990055;28;124080;-73
2021/03/11 09:30:51;;;;;;;28.35;5.53;;;;;;;17.48;40.75;99706.91;4970696;28;123765;-74
2021/03/11 09:33:18;;;;;;;37.30;6.05;;;;;;;17.47;41.02;99681.34;4971627;28;109267;-74
2021/03/11 09:35:44;;;;;;;51.30;7.10;;;;;;;17.52;40.84;99712.81;4957191;28;108453;-80
2021/03/11 09:38:11;;;;;;;32.58;6.30;;;;;;;17.67;40.72;99702.00;4974496;28;122915;-76
2021/03/11 09:40:43;;;;;;;26.30;6.65;;;;;;;17.70;40.35;99693.00;4976515;28;123800;-75
2021/03/11 09:43:15;;;;;;;27.55;6.50;;;;;;;17.58;40.64;99707.94;5002428;28;109343;-79
2021/03/11 09:45:48;;;;;;;24.77;6.07;;;;;;;17.57;39.97;99685.03;4983660;28;108149;-76
2021/03/11 09:48:14;;;;;;;;;;;;;;;17.60;40.22;99687.47;4993659;28;124265;-78
2021/03/11 09:50:49;;;;;;;30.98;7.07;;;;;;;17.57;40.23;99697.44;4992049;28;123894;-76
2021/03/11 09:53:16;;;;;;;18.73;5.47;;;;;;;17.65;40.19;99721.63;4991757;28;110512;-75
2021/03/11 09:55:42;;;;;;;22.08;5.80;;;;;;;17.70;40.19;99711.56;4992427;28;110103;-77
2021/03/11 09:58:18;;;;;;;20.98;6.15;;;;;;;17.74;39.92;99713.03;4974714;28;124102;-76
2021/03/11 10:00:46;;;;;;;20.75;5.47;;;;;;;17.78;39.47;99700.38;4991915;28;123698;-76
2021/03/11 10:03:18;;;;;;;23.67;5.40;;;;;;;17.77;39.71;99693.38;4991459;28;108939;-76
2021/03/11 10:05:49;;;;;;;26.10;5.15;;;;;;;17.75;39.47;99688.19;4998481;28;109007;-78
2021/03/11 10:08:27;;;;;;;18.27;5.53;;;;;;;17.74;39.19;99708.56;5003736;28;125369;-75
2021/03/11 10:11:05;;;;;;;20.08;5.20;;;;;;;17.87;39.04;99713.00;4988442;28;122910;-74
2021/03/11 10:13:35;;;;;;;22.30;5.22;;;;;;;17.91;38.93;99719.81;5007101;28;110868;-76
2021/03/11 10:16:01;;;;;;;19.63;4.82;;;;;;;17.94;38.98;99735.50;4984501;28;108568;-77
2021/03/11 10:18:27;;;;;;;17.75;4.97;;;;;;;17.98;38.73;99726.34;5000000;28;124278;-77
2021/03/11 10:21:08;;;;;;;13.02;3.90;;;;;;;17.88;38.28;99730.63;5001974;28;123764;-75
2021/03/11 10:23:51;;;;;;;19.48;4.88;;;;;;;17.89;38.61;99756.19;4984617;28;109462;-77
2021/03/11 10:26:20;;;;;;;19.00;4.07;;;;;;;17.97;38.54;99732.63;4976980;28;108726;-76
2021/03/11 10:28:50;;;;;;;14.15;4.22;;;;;;;17.98;38.55;99739.63;4980929;28;123652;-77
2021/03/11 10:31:16;;;;;;;13.43;3.70;;;;;;;17.96;38.28;99739.75;4975977;28;123203;-75
2021/03/11 10:33:44;;;;;;;12.35;3.80;;;;;;;17.95;37.87;99764.59;4983642;28;109794;-76
2021/03/11 10:36:15;;;;;;;12.27;3.78;;;;;;;17.97;38.15;99773.28;4999480;28;109156;-77
2021/03/11 10:38:43;;;;;;;11.93;3.97;;;;;;;17.99;38.00;99771.38;5002077;28;124554;-76
2021/03/11 10:41:17;;;;;;;14.15;3.70;;;;;;;18.02;38.01;99780.94;4993516;28;123972;-76
2021/03/11 10:43:45;;;;;;;11.88;3.85;;;;;;;17.96;38.09;99762.78;4999342;28;110769;-77
2021/03/11 10:46:27;;;;;;;13.43;3.42;;;;;;;18.02;37.93;99786.25;4971561;28;108353;-75
2021/03/11 10:48:53;;;;;;;10.23;3.45;;;;;;;17.98;38.34;99790.91;4990317;28;124054;-76
2021/03/11 10:51:21;;;;;;;9.45;3.42;;;;;;;17.92;38.23;99795.81;4991934;28;124124;-76
2021/03/11 10:53:47;;;;;;;15.32;4.13;;;;;;;17.93;38.40;99786.91;4992175;28;109092;-77
2021/03/11 10:56:14;;;;;;;14.73;4.30;;;;;;;17.90;38.28;99781.81;4993081;28;109197;-77
2021/03/11 10:58:41;;;;;;;12.82;4.38;;;;;;;17.95;38.31;99779.66;4991289;28;124535;-77
2021/03/11 11:01:10;;;;;;;19.05;4.28;;;;;;;17.88;38.46;99783.72;4991012;28;123700;-77
2021/03/11 11:03:37;;;;;;;13.75;4.43;;;;;;;17.85;38.29;99807.81;4990513;28;109040;-77
2021/03/11 11:06:07;;;;;;;22.27;4.40;;;;;;;17.86;38.47;99801.56;4991453;28;109054;-76
2021/03/11 11:08:39;;;;;;;11.23;3.72;;;;;;;17.81;38.55;99799.22;4989762;28;124288;-77
2021/03/11 11:11:05;;;;;;;13.40;4.10;;;;;;;17.80;38.57;99812.63;4989489;28;123959;-77
2021/03/11 11:13:32;;;;;;;17.42;4.18;;;;;;;17.68;38.63;99796.56;4991102;28;109018;-77
2021/03/11 11:15:58;;;;;;;13.95;4.22;;;;;;;17.71;38.76;99807.00;4990757;28;108812;-77
2021/03/11 11:18:24;;;;;;;11.88;4.03;;;;;;;17.79;38.61;99825.03;4973470;28;124425;-78
2021/03/11 11:20:50;;;;;;;15.13;4.68;;;;;;;17.74;38.60;99824.50;4989906;28;124187;-78
2021/03/11 11:23:16;;;;;;;11.13;3.80;;;;;;;17.73;38.55;99817.50;4992388;28;110177;-76
2021/03/11 11:25:42;;;;;;;13.02;4.05;;;;;;;17.69;38.72;99827.47;4993863;28;109061;-79
2021/03/11 11:28:08;;;;;;;14.27;4.60;;;;;;;17.71;38.60;99824.72;4991788;28;125437;-78
2021/03/11 11:30:34;;;;;;;16.75;4.75;;;;;;;17.66;38.72;99826.78;4991678;28;124710;-78
2021/03/11 11:33:00;;;;;;;15.95;3.92;;;;;;;17.61;38.74;99835.09;4992543;28;110419;-79
2021/03/11 11:35:26;;;;;;;13.88;5.32;;;;;;;17.52;39.02;99829.56;4993220;28;109927;-77
2021/03/11 11:37:53;;;;;;;15.05;4.80;;;;;;;17.57;38.91;99852.19;4975015;28;124321;-79